createdAt,value
2019-01-25T00:01:14.002Z,10.30
2019-01-25T00:03:43.392Z,13.25
2019-01-25T00:06:24.086Z,13.05
2019-01-25T00:09:05.310Z,10.82
2019-01-25T00:11:34.297Z,8.50
2019-01-25T00:14:39.439Z,9.05
2019-01-25T00:17:05.428Z,6.10
2019-01-25T00:19:46.068Z,4.72
2019-01-25T00:22:26.913Z,6.25
2019-01-25T00:25:08.031Z,5.85
2019-01-25T00:27:49.097Z,4.45
2019-01-25T00:30:30.538Z,8.15
2019-01-25T00:33:11.465Z,2.75
2019-01-25T00:35:52.320Z,6.22
2019-01-25T00:38:34.053Z,1.55
2019-01-25T00:41:14.676Z,7.67
2019-01-25T00:43:55.516Z,4.50
2019-01-25T00:46:36.425Z,3.33
2019-01-25T00:49:18.002Z,6.10
2019-01-25T00:51:58.972Z,5.87
2019-01-25T00:54:39.892Z,5.50
2019-01-25T00:57:09.211Z,7.20
2019-01-25T00:59:50.339Z,8.43
2019-01-25T01:02:31.077Z,3.83
2019-01-25T01:05:12.029Z,6.00
2019-01-25T01:07:53.213Z,8.20
2019-01-25T01:10:34.537Z,2.72
2019-01-25T01:13:15.823Z,6.15
2019-01-25T01:15:57.014Z,4.10
2019-01-25T01:18:37.923Z,1.32
2019-01-25T01:21:06.886Z,2.42
2019-01-25T01:24:08.946Z,8.85
2019-01-25T01:26:37.338Z,2.98
2019-01-25T01:29:06.456Z,9.05
2019-01-25T01:31:35.457Z,7.75
2019-01-25T01:34:23.735Z,4.80
2019-01-25T01:37:05.256Z,3.52
2019-01-25T01:39:46.010Z,6.92
2019-01-25T01:42:26.802Z,7.00
2019-01-25T01:45:07.611Z,9.55
2019-01-25T01:47:52.630Z,7.00
2019-01-25T01:50:31.949Z,4.92
2019-01-25T01:53:31.847Z,6.67
2019-01-25T01:56:02.820Z,4.10
2019-01-25T01:58:44.167Z,6.20
2019-01-25T02:01:24.863Z,6.45
2019-01-25T02:04:06.304Z,6.40
2019-01-25T02:09:09.601Z,3.98
2019-01-25T02:12:12.189Z,13.72
2019-01-25T02:15:02.334Z,13.00
2019-01-25T02:17:31.221Z,10.85
2019-01-25T02:20:12.152Z,7.62
2019-01-25T02:22:53.915Z,9.33
2019-01-25T02:25:35.092Z,7.10
2019-01-25T02:28:15.997Z,6.25
2019-01-25T02:30:56.661Z,7.10
2019-01-25T02:33:37.301Z,5.53
2019-01-25T02:36:17.973Z,8.20
2019-01-25T02:38:59.426Z,11.10
2019-01-25T02:44:24.584Z,9.05
2019-01-25T02:47:05.629Z,8.60
2019-01-25T02:49:46.844Z,8.53
2019-01-25T02:52:27.540Z,10.45
2019-01-25T02:55:10.322Z,8.90
2019-01-25T02:57:51.151Z,7.50
2019-01-25T03:00:32.412Z,12.75
2019-01-25T03:06:33.155Z,5.80
2019-01-25T03:09:14.541Z,5.47
2019-01-25T03:11:55.165Z,8.25
2019-01-25T03:14:36.350Z,6.85
2019-01-25T03:17:05.425Z,10.32
2019-01-25T03:19:34.424Z,8.25
2019-01-25T03:22:36.384Z,8.35
2019-01-25T03:25:05.991Z,9.53
2019-01-25T03:27:46.741Z,7.62
2019-01-25T03:30:27.693Z,10.13
2019-01-25T03:33:08.759Z,8.00
2019-01-25T03:35:50.175Z,12.07
2019-01-25T03:38:31.121Z,10.28
2019-01-25T03:41:12.922Z,11.20
2019-01-25T03:43:54.361Z,9.30
2019-01-25T03:46:35.641Z,11.10
2019-01-25T03:49:14.898Z,8.48
2019-01-25T03:55:05.101Z,9.88
2019-01-25T03:57:34.175Z,10.25
2019-01-25T04:00:41.673Z,9.98
2019-01-25T04:03:22.300Z,10.25
2019-01-25T04:06:03.447Z,9.18
2019-01-25T04:08:44.144Z,10.58
2019-01-25T04:11:25.091Z,9.95
2019-01-25T04:14:05.848Z,11.48
2019-01-25T04:16:46.765Z,11.48
2019-01-25T04:19:28.258Z,10.35
2019-01-25T04:22:08.939Z,10.72
2019-01-25T04:24:50.147Z,11.60
2019-01-25T04:27:31.709Z,11.75
2019-01-25T04:30:12.732Z,8.55
2019-01-25T04:32:53.670Z,13.25
2019-01-25T04:35:35.998Z,12.95
2019-01-25T04:40:58.823Z,12.15
2019-01-25T04:43:39.669Z,11.68
2019-01-25T04:46:08.879Z,11.45
2019-01-25T04:52:07.312Z,12.05
2019-01-25T04:54:38.308Z,11.00
2019-01-25T04:57:07.469Z,11.43
2019-01-25T05:00:09.265Z,9.70
2019-01-25T05:02:56.754Z,9.58
2019-01-25T05:05:58.930Z,12.75
2019-01-25T05:08:28.025Z,12.50
2019-01-25T05:11:09.567Z,13.32
2019-01-25T05:13:39.502Z,13.22
2019-01-25T05:16:39.260Z,11.90
2019-01-25T05:19:10.597Z,9.15
2019-01-25T05:21:51.574Z,11.12
2019-01-25T05:24:32.983Z,11.80
2019-01-25T05:27:12.347Z,10.32
2019-01-25T05:30:12.245Z,13.28
2019-01-25T05:32:43.065Z,14.45
2019-01-25T05:35:24.207Z,11.35
2019-01-25T05:38:06.733Z,12.90
2019-01-25T05:40:35.654Z,11.73
2019-01-25T05:43:37.985Z,12.63
2019-01-25T05:49:02.131Z,9.53
2019-01-25T05:51:42.853Z,8.95
2019-01-25T05:54:24.275Z,8.55
2019-01-25T05:57:05.100Z,12.95
2019-01-25T05:59:47.672Z,10.43
2019-01-25T06:02:29.092Z,13.13
2019-01-25T06:05:10.540Z,12.35
2019-01-25T06:07:39.697Z,14.38
2019-01-25T06:10:44.176Z,11.43
2019-01-25T06:13:13.527Z,9.03
2019-01-25T06:15:54.972Z,11.25
2019-01-25T06:18:35.806Z,10.30
2019-01-25T06:21:05.281Z,12.58
2019-01-25T06:23:35.506Z,13.88
2019-01-25T06:32:33.274Z,12.88
2019-01-25T06:35:14.457Z,12.98
2019-01-25T06:37:55.545Z,13.28
2019-01-25T06:40:36.141Z,10.28
2019-01-25T06:43:17.095Z,11.33
2019-01-25T06:45:58.248Z,11.18
2019-01-25T06:48:39.576Z,11.78
2019-01-25T06:51:20.298Z,12.95
2019-01-25T06:54:02.541Z,10.23
2019-01-25T06:56:43.678Z,11.25
2019-01-25T06:59:24.568Z,11.68
2019-01-25T07:02:06.900Z,12.33
2019-01-25T07:04:48.073Z,13.83
2019-01-25T07:07:30.363Z,11.95
2019-01-25T07:10:11.672Z,13.22
2019-01-25T07:12:52.418Z,12.23
2019-01-25T07:15:33.242Z,13.43
2019-01-25T07:24:20.082Z,11.68
2019-01-25T07:27:00.976Z,13.25
2019-01-25T07:29:42.202Z,12.15
2019-01-25T07:32:23.279Z,15.03
2019-01-25T07:35:04.376Z,13.45
2019-01-25T07:37:45.772Z,12.43
2019-01-25T07:40:26.615Z,13.43
2019-01-25T07:43:07.494Z,12.58
2019-01-25T07:45:48.218Z,14.03
2019-01-25T07:48:27.432Z,12.63
2019-01-25T07:51:08.254Z,13.68
2019-01-25T07:56:31.057Z,11.65
2019-01-25T07:59:14.060Z,13.62
2019-01-25T08:01:55.007Z,11.15
2019-01-25T08:04:35.950Z,14.50
2019-01-25T08:07:05.282Z,11.55
2019-01-25T08:10:07.249Z,14.25
2019-01-25T08:12:36.385Z,10.68
2019-01-25T08:15:26.282Z,12.35
2019-01-25T08:18:07.440Z,11.83
2019-01-25T08:23:37.583Z,11.55
2019-01-25T08:29:37.999Z,12.05
2019-01-25T08:32:19.996Z,11.55
2019-01-25T08:35:01.187Z,11.93
2019-01-25T08:37:42.379Z,13.53
2019-01-25T08:40:24.006Z,14.75
2019-01-25T08:43:05.668Z,14.33
2019-01-25T08:45:49.542Z,16.32
2019-01-25T08:48:30.594Z,13.68
2019-01-25T08:51:11.590Z,16.10
2019-01-25T08:53:53.490Z,16.87
2019-01-25T08:56:34.454Z,14.13
2019-01-25T08:59:17.112Z,14.53
2019-01-25T09:01:58.144Z,15.72
2019-01-25T09:04:39.212Z,13.00
2019-01-25T09:07:20.043Z,14.13
2019-01-25T09:10:01.277Z,16.82
2019-01-25T09:12:42.729Z,9.85
2019-01-25T09:15:25.599Z,11.50
2019-01-25T09:18:06.901Z,11.93
2019-01-25T09:20:47.957Z,6.67
2019-01-25T09:23:29.098Z,6.40
2019-01-25T09:26:10.073Z,3.95
2019-01-25T09:28:52.978Z,7.00
2019-01-25T09:31:34.664Z,11.03
2019-01-25T09:34:15.982Z,8.88
2019-01-25T09:36:58.287Z,4.15
2019-01-25T09:39:39.122Z,7.15
2019-01-25T09:42:20.609Z,10.20
2019-01-25T09:45:02.371Z,8.43
2019-01-25T09:47:43.005Z,11.12
2019-01-25T09:50:24.021Z,7.55
2019-01-25T09:53:05.384Z,10.25
2019-01-25T09:55:46.401Z,10.78
2019-01-25T09:58:27.388Z,7.87
2019-01-25T10:01:08.202Z,11.10
2019-01-25T10:03:49.346Z,12.65
2019-01-25T10:06:30.493Z,11.95
2019-01-25T10:09:14.486Z,6.40
2019-01-25T10:11:55.341Z,10.53
2019-01-25T10:14:36.544Z,3.65
2019-01-25T10:17:17.990Z,7.42
2019-01-25T10:19:58.772Z,5.92
2019-01-25T10:22:39.587Z,6.28
2019-01-25T10:25:20.577Z,6.50
2019-01-25T10:28:03.447Z,6.72
2019-01-25T10:30:44.304Z,5.35
2019-01-25T10:33:26.353Z,7.90
2019-01-25T10:36:08.025Z,5.70
2019-01-25T10:38:49.025Z,6.33
2019-01-25T10:41:30.451Z,4.20
2019-01-25T10:46:56.937Z,8.97
2019-01-25T10:49:38.631Z,7.20
2019-01-25T10:52:19.645Z,5.53
2019-01-25T10:55:01.199Z,8.90
2019-01-25T10:57:42.191Z,10.03
2019-01-25T11:00:23.974Z,6.37
2019-01-25T11:03:05.869Z,8.38
2019-01-25T11:05:34.861Z,7.47
2019-01-25T11:08:40.420Z,5.35
2019-01-25T11:14:13.616Z,2.75
2019-01-25T11:16:54.361Z,4.60
2019-01-25T11:19:35.979Z,4.10
2019-01-25T11:22:05.136Z,4.12
2019-01-25T11:25:07.857Z,3.42
2019-01-25T11:27:36.084Z,4.20
2019-01-25T11:30:17.530Z,3.25
2019-01-25T11:32:58.465Z,6.78
2019-01-25T11:35:40.344Z,5.33
2019-01-25T11:38:21.391Z,5.83
2019-01-25T11:41:02.390Z,4.37
2019-01-25T11:43:43.033Z,3.65
2019-01-25T11:46:24.075Z,1.90
2019-01-25T11:49:05.264Z,6.53
2019-01-25T11:51:46.564Z,1.77
2019-01-25T11:54:28.197Z,1.55
2019-01-25T11:57:13.226Z,2.10
2019-01-25T12:00:01.828Z,2.00
2019-01-25T12:02:42.736Z,2.67
2019-01-25T12:05:24.552Z,2.47
2019-01-25T12:08:05.596Z,4.12
2019-01-25T12:10:34.559Z,2.40
2019-01-25T12:13:22.974Z,2.60
2019-01-25T12:16:04.096Z,4.97
2019-01-25T12:18:44.884Z,7.33
2019-01-25T12:21:25.555Z,8.23
2019-01-25T12:24:06.443Z,4.85
2019-01-25T12:26:47.255Z,7.85
2019-01-25T12:29:29.152Z,4.95
2019-01-25T12:34:52.833Z,1.62
2019-01-25T12:37:34.507Z,3.40
2019-01-25T12:40:06.456Z,4.53
2019-01-25T12:45:42.888Z,2.20
2019-01-25T12:51:05.934Z,2.77
2019-01-25T12:53:35.257Z,4.28
2019-01-25T12:56:23.754Z,1.80
2019-01-25T12:59:05.022Z,1.15
2019-01-25T13:01:35.074Z,3.50
2019-01-25T13:04:35.422Z,3.20
2019-01-25T13:09:50.677Z,2.60
2019-01-25T13:12:31.905Z,1.30
2019-01-25T13:15:12.270Z,3.05
2019-01-25T13:20:51.943Z,1.07
2019-01-25T13:23:32.842Z,1.80
2019-01-25T13:26:14.066Z,2.22
2019-01-25T13:28:56.115Z,3.60
2019-01-25T13:31:36.799Z,4.00
2019-01-25T13:34:21.974Z,4.67
2019-01-25T13:37:02.681Z,2.85
2019-01-25T13:39:44.225Z,3.40
2019-01-25T13:42:24.956Z,2.47
2019-01-25T13:45:05.769Z,7.83
2019-01-25T13:47:34.728Z,5.60
2019-01-25T13:51:00.500Z,6.20
2019-01-25T13:53:46.968Z,4.00
2019-01-25T13:56:15.912Z,1.92
2019-01-25T13:58:56.664Z,4.12
2019-01-25T14:01:37.793Z,4.55
2019-01-25T14:04:22.193Z,5.45
2019-01-25T14:07:03.198Z,1.85
2019-01-25T14:09:44.109Z,3.92
2019-01-25T14:12:24.814Z,3.75
2019-01-25T14:15:05.574Z,1.92
2019-01-25T14:17:46.221Z,0.75
2019-01-25T14:20:27.514Z,1.30
2019-01-25T14:23:08.415Z,3.05
2019-01-25T14:25:51.076Z,2.22
2019-01-25T14:28:33.663Z,1.35
2019-01-25T14:31:15.316Z,3.08
2019-01-25T14:33:56.319Z,1.57
2019-01-25T14:36:37.440Z,2.50
2019-01-25T14:39:18.169Z,1.55
2019-01-25T14:41:58.880Z,0.70
2019-01-25T14:44:43.813Z,2.85
2019-01-25T14:47:24.797Z,2.00
2019-01-25T14:50:06.152Z,3.00
2019-01-25T14:52:47.226Z,0.82
2019-01-25T14:55:28.108Z,1.98
2019-01-25T14:58:08.998Z,2.30
2019-01-25T15:00:54.073Z,1.75
2019-01-25T15:03:33.018Z,4.45
2019-01-25T15:06:14.281Z,5.30
2019-01-25T15:08:55.510Z,4.80
2019-01-25T15:11:36.873Z,5.40
2019-01-25T15:14:06.594Z,4.00
2019-01-25T15:20:23.158Z,3.08
2019-01-25T15:23:04.138Z,5.70
2019-01-25T15:25:46.729Z,5.47
2019-01-25T15:28:27.401Z,3.65
2019-01-25T15:31:09.120Z,5.40
2019-01-25T15:33:50.442Z,1.17
2019-01-25T15:36:31.899Z,4.42
2019-01-25T15:39:12.620Z,4.95
2019-01-25T15:41:53.464Z,4.28
2019-01-25T15:47:18.472Z,7.45
2019-01-25T15:49:59.715Z,5.00
2019-01-25T15:52:40.497Z,5.85
2019-01-25T15:55:21.473Z,5.70
2019-01-25T15:58:02.698Z,3.37
2019-01-25T16:00:44.324Z,1.17
2019-01-25T16:03:25.215Z,4.53
2019-01-25T16:06:06.725Z,4.53
2019-01-25T16:08:47.593Z,7.53
2019-01-25T16:11:29.273Z,6.22
2019-01-25T16:14:17.672Z,7.85
2019-01-25T16:16:54.445Z,6.72
2019-01-25T16:19:35.844Z,7.92
2019-01-25T16:22:16.793Z,6.03
2019-01-25T16:24:58.217Z,4.95
2019-01-25T16:27:37.955Z,8.05
2019-01-25T16:30:41.914Z,6.55
2019-01-25T16:33:11.241Z,5.70
2019-01-25T16:35:52.658Z,6.92
2019-01-25T16:38:34.054Z,6.85
2019-01-25T16:41:14.853Z,5.75
2019-01-25T16:43:55.953Z,7.53
2019-01-25T16:46:37.008Z,5.75
2019-01-25T16:49:06.229Z,5.28
2019-01-25T16:54:56.865Z,5.45
2019-01-25T16:57:37.865Z,7.30
2019-01-25T17:00:19.094Z,6.75
2019-01-25T17:03:00.792Z,5.50
2019-01-25T17:05:41.894Z,6.08
2019-01-25T17:08:10.987Z,8.15
2019-01-25T17:13:35.313Z,7.62
2019-01-25T17:16:24.241Z,8.73
2019-01-25T17:22:06.442Z,7.28
2019-01-25T17:27:29.948Z,7.25
2019-01-25T17:30:11.571Z,6.03
2019-01-25T17:32:53.196Z,9.23
2019-01-25T17:35:34.710Z,8.78
2019-01-25T17:38:16.077Z,8.85
2019-01-25T17:40:57.268Z,9.20
2019-01-25T17:43:38.422Z,6.10
2019-01-25T17:46:07.980Z,6.10
2019-01-25T17:51:46.085Z,5.50
2019-01-25T18:00:29.641Z,8.00
2019-01-25T18:03:10.836Z,8.18
2019-01-25T18:05:52.507Z,5.37
2019-01-25T18:08:35.180Z,9.98
2019-01-25T18:11:04.937Z,8.05
2019-01-25T18:13:53.512Z,7.22
2019-01-25T18:16:35.296Z,8.28
2019-01-25T18:19:16.428Z,5.90
2019-01-25T18:21:57.398Z,5.75
2019-01-25T18:24:38.247Z,7.95
2019-01-25T18:27:07.985Z,7.15
2019-01-25T18:32:58.037Z,7.70
2019-01-25T18:35:39.405Z,4.62
2019-01-25T18:38:20.327Z,5.83
2019-01-25T18:41:01.773Z,6.22
2019-01-25T18:43:43.511Z,5.70
2019-01-25T18:46:25.125Z,5.30
2019-01-25T18:49:09.875Z,5.37
2019-01-25T18:51:51.265Z,7.90
2019-01-25T18:54:32.852Z,8.70
2019-01-25T18:57:14.122Z,5.80
2019-01-25T18:59:55.722Z,5.90
2019-01-25T19:02:37.486Z,7.28
2019-01-25T19:05:08.966Z,5.10
2019-01-25T19:10:57.038Z,8.98
2019-01-25T19:13:39.660Z,8.50
2019-01-25T19:16:09.013Z,7.40
2019-01-25T19:18:38.486Z,7.12
2019-01-25T19:27:10.647Z,11.08
2019-01-25T19:29:51.504Z,8.08
2019-01-25T19:32:32.515Z,8.80
2019-01-25T19:35:13.598Z,7.00
2019-01-25T19:37:55.064Z,10.50
2019-01-25T19:40:36.545Z,5.83
2019-01-25T19:43:18.038Z,8.08
2019-01-25T19:46:00.159Z,6.00
2019-01-25T19:48:41.166Z,6.87
2019-01-25T19:51:10.516Z,6.25
2019-01-25T19:57:01.111Z,5.40
2019-01-25T19:59:42.914Z,6.90
2019-01-25T20:02:24.227Z,5.00
2019-01-25T20:05:05.934Z,5.28
2019-01-25T20:07:47.205Z,6.78
2019-01-25T20:10:29.367Z,4.20
2019-01-25T20:13:10.492Z,7.30
2019-01-25T20:15:51.896Z,3.55
2019-01-25T20:18:33.225Z,5.72
2019-01-25T20:21:14.664Z,4.65
2019-01-25T20:23:55.995Z,6.17
2019-01-25T20:26:37.579Z,3.45
2019-01-25T20:29:07.025Z,5.40
2019-01-25T20:31:36.345Z,3.95
2019-01-25T20:34:08.778Z,6.92
2019-01-25T20:39:44.876Z,5.62
2019-01-25T20:42:27.219Z,3.45
2019-01-25T20:45:08.687Z,6.33
2019-01-25T20:47:50.215Z,1.95
2019-01-25T20:50:31.799Z,2.87
2019-01-25T20:53:12.980Z,5.03
2019-01-25T20:55:53.990Z,4.92
2019-01-25T20:58:35.521Z,5.58
2019-01-25T21:01:15.407Z,4.45
2019-01-25T21:04:23.174Z,3.67
2019-01-25T21:07:04.786Z,2.67
2019-01-25T21:09:45.670Z,3.87
2019-01-25T21:12:27.452Z,5.05
2019-01-25T21:15:10.281Z,1.85
2019-01-25T21:17:51.836Z,5.83
2019-01-25T21:20:33.742Z,6.40
2019-01-25T21:23:15.175Z,4.25
2019-01-25T21:25:56.957Z,3.72
2019-01-25T21:28:38.476Z,5.62
2019-01-25T21:31:19.989Z,6.78
2019-01-25T21:34:01.273Z,3.35
2019-01-25T21:36:42.840Z,6.87
2019-01-25T21:39:12.285Z,4.67
2019-01-25T21:48:14.371Z,4.20
2019-01-25T21:50:55.254Z,2.35
2019-01-25T21:53:36.599Z,4.37
2019-01-25T21:56:05.954Z,6.05
2019-01-25T21:58:55.029Z,4.45
2019-01-25T22:01:43.468Z,2.47
2019-01-25T22:04:12.690Z,5.00
2019-01-25T22:10:05.411Z,5.28
2019-01-25T22:12:46.468Z,3.35
2019-01-25T22:15:28.460Z,3.55
2019-01-25T22:18:09.880Z,5.60
2019-01-25T22:20:53.966Z,2.40
2019-01-25T22:23:34.737Z,5.65
2019-01-25T22:26:03.736Z,5.33
2019-01-25T22:28:44.428Z,5.70
2019-01-25T22:31:25.502Z,4.90
2019-01-25T22:34:06.230Z,3.60
2019-01-25T22:36:51.006Z,7.15
2019-01-25T22:42:28.670Z,4.58
2019-01-25T22:45:10.307Z,5.90
2019-01-25T22:47:51.863Z,7.58
2019-01-25T22:50:33.785Z,7.10
2019-01-25T22:53:14.813Z,4.10
2019-01-25T22:55:55.997Z,2.98
2019-01-25T22:58:36.662Z,5.50
2019-01-25T23:01:08.505Z,4.40
2019-01-25T23:06:59.393Z,3.22
2019-01-25T23:09:40.859Z,3.45
2019-01-25T23:12:09.921Z,4.35
2019-01-25T23:14:58.122Z,5.10
2019-01-25T23:17:38.971Z,3.47
2019-01-25T23:23:12.175Z,1.98
2019-01-25T23:26:02.471Z,2.00
2019-01-25T23:28:31.310Z,3.55
2019-01-25T23:31:12.135Z,4.40
2019-01-25T23:33:52.993Z,3.65
2019-01-25T23:36:37.557Z,3.25
2019-01-25T23:39:18.433Z,3.72
2019-01-25T23:41:59.214Z,2.45
2019-01-25T23:44:40.065Z,3.33
2019-01-25T23:47:09.210Z,2.12
2019-01-25T23:50:08.997Z,3.15
2019-01-25T23:52:40.472Z,2.80
2019-01-25T23:55:09.629Z,1.62
